Time;durP1;ratioP1;P1;durP2;ratioP2;P2;SDS_P1;SDS_P2;PMS_P1;PMS_P2;Temp;Humidity;BMP_temperature;BMP_pressure;BME280_temperature;BME280_humidity;BME280_pressure;Samples;Min_cycle;Max_cycle;Signal;HPM_P1;HPM_P2
2021/12/28 00:01:30;;;;;;;50.03;21.23;;;;;;;-4.21;74.50;98737.84;1713697;83;21548;-41
2021/12/28 00:03:56;;;;;;;48.42;20.43;;;;;;;-4.18;74.80;98735.23;1713431;84;21000;-41
2021/12/28 00:06:22;;;;;;;43.35;20.48;;;;;;;-4.18;75.11;98733.55;1713660;83;20976;-41
2021/12/28 00:08:49;;;;;;;43.10;19.40;;;;;;;-4.07;75.06;98733.49;1713459;84;21003;-41
2021/12/28 00:11:15;;;;;;;40.83;19.27;;;;;;;-4.18;74.79;98730.98;1713607;83;21047;-41
2021/12/28 00:13:43;;;;;;;45.05;20.02;;;;;;;-4.20;75.25;98726.69;1713471;84;21442;-41
2021/12/28 00:18:37;;;;;;;39.35;17.45;;;;;;;-4.17;75.49;98733.11;1713460;84;20130;-41
2021/12/28 00:21:07;;;;;;;43.20;19.23;;;;;;;-4.12;75.63;98732.66;1713574;84;20999;-41
2021/12/28 00:23:40;;;;;;;37.00;16.85;;;;;;;-4.26;76.11;98734.00;1713434;84;21003;-41
2021/12/28 00:26:13;;;;;;;41.53;17.12;;;;;;;-4.15;76.01;98731.38;1713237;83;21003;-41
2021/12/28 00:28:42;;;;;;;36.93;17.67;;;;;;;-4.19;76.20;98730.98;1713357;83;21482;-41
2021/12/28 00:31:10;;;;;;;37.98;18.52;;;;;;;-4.13;75.84;98721.95;1713480;83;20968;-41
2021/12/28 00:33:36;;;;;;;37.63;17.25;;;;;;;-4.18;76.14;98724.97;1713507;83;20995;-41
2021/12/28 00:36:02;;;;;;;34.83;16.82;;;;;;;-4.12;76.55;98719.81;1713457;83;20995;-41
2021/12/28 00:38:28;;;;;;;39.88;16.27;;;;;;;-4.12;76.72;98726.23;1713472;83;21004;-41
2021/12/28 00:41:00;;;;;;;34.58;15.95;;;;;;;-4.11;76.85;98731.77;1713442;84;21000;-41
2021/12/28 00:43:29;;;;;;;32.28;16.60;;;;;;;-4.11;76.88;98724.95;1713497;84;21000;-41
2021/12/28 00:45:55;;;;;;;33.67;15.20;;;;;;;-4.10;76.75;98721.94;1713555;84;20976;-41
2021/12/28 00:48:21;;;;;;;30.35;14.28;;;;;;;-4.15;76.94;98727.53;1713443;83;21039;-42
2021/12/28 00:50:48;;;;;;;28.62;15.10;;;;;;;-4.25;77.01;98717.75;1713476;83;21030;-42
2021/12/28 00:53:14;;;;;;;30.27;13.62;;;;;;;-4.19;76.88;98718.14;1713578;84;21544;-41
2021/12/28 00:55:40;;;;;;;28.57;14.43;;;;;;;-4.20;76.84;98715.14;1713429;84;20992;-42
2021/12/28 00:58:06;;;;;;;29.48;14.58;;;;;;;-4.21;76.73;98711.73;1713454;83;21502;-42
2021/12/28 01:00:36;;;;;;;25.92;13.05;;;;;;;-4.20;76.91;98717.70;1713464;84;20999;-42
2021/12/28 01:03:05;;;;;;;31.77;15.23;;;;;;;-4.25;76.97;98716.46;1713529;83;20976;-41
2021/12/28 01:05:31;;;;;;;31.40;15.10;;;;;;;-4.25;77.22;98714.73;1713463;83;20995;-42
2021/12/28 01:07:57;;;;;;;25.05;13.40;;;;;;;-4.21;77.08;98715.58;1713748;84;21028;-42
2021/12/28 01:10:28;;;;;;;25.97;14.20;;;;;;;-4.21;77.08;98715.58;1713588;84;20996;-41
2021/12/28 01:12:55;;;;;;;29.65;14.90;;;;;;;-4.21;76.59;98716.86;1713623;83;21000;-42
2021/12/28 01:15:23;;;;;;;30.65;15.15;;;;;;;-4.31;76.71;98722.48;1713746;83;21008;-42
2021/12/28 01:17:49;;;;;;;27.62;13.62;;;;;;;-4.39;76.43;98722.93;1713703;84;20999;-41
2021/12/28 01:20:15;;;;;;;31.75;14.85;;;;;;;-4.41;76.65;98707.97;1713588;84;20995;-42
2021/12/28 01:22:43;;;;;;;26.63;12.27;;;;;;;-4.41;76.65;98707.97;1713772;84;21008;-42
2021/12/28 01:25:11;;;;;;;28.15;11.88;;;;;;;-4.43;76.64;98714.83;1713631;84;21047;-41
2021/12/28 01:27:37;;;;;;;28.23;13.50;;;;;;;-4.46;76.86;98714.83;1713493;83;21011;-42
2021/12/28 01:30:06;;;;;;;32.70;15.03;;;;;;;-4.52;76.95;98702.88;1713588;84;20989;-41
2021/12/28 01:32:34;;;;;;;31.52;14.45;;;;;;;-4.45;76.96;98701.16;1713609;83;21004;-42
2021/12/28 01:35:00;;;;;;;27.13;12.30;;;;;;;-4.45;77.06;98701.16;1713576;84;20991;-42
2021/12/28 01:37:26;;;;;;;27.13;13.90;;;;;;;-4.44;77.05;98697.70;1747309;82;20987;-41
2021/12/28 01:39:52;;;;;;;33.80;16.40;;;;;;;-4.40;77.06;98695.58;1747424;82;21489;-41
2021/12/28 01:42:18;;;;;;;27.30;13.53;;;;;;;-4.33;77.06;98698.94;1747399;82;21481;-41
2021/12/28 01:44:43;;;;;;;29.70;14.05;;;;;;;-4.35;76.94;98697.66;1747340;82;20957;-41
2021/12/28 01:47:12;;;;;;;36.77;15.00;;;;;;;-4.30;77.47;98683.09;1747377;82;21027;-41
2021/12/28 01:49:37;;;;;;;27.27;13.68;;;;;;;-4.30;77.47;98683.09;1747017;82;21004;-42
2021/12/28 01:52:03;;;;;;;30.05;14.33;;;;;;;-4.23;76.79;98676.22;1747413;82;20968;-42
2021/12/28 01:54:29;;;;;;;32.00;14.73;;;;;;;-4.15;77.04;98671.88;1747605;82;20952;-42
2021/12/28 01:56:55;;;;;;;29.32;14.35;;;;;;;-4.14;76.51;98657.35;1747402;82;21580;-42
2021/12/28 01:59:22;;;;;;;25.57;13.55;;;;;;;-4.14;76.51;98657.35;1747382;82;21477;-42
2021/12/28 02:01:49;;;;;;;28.90;13.58;;;;;;;-4.13;76.35;98659.03;1747501;81;20979;-42
2021/12/28 02:04:20;;;;;;;25.45;12.82;;;;;;;-4.10;76.28;98639.33;1747445;82;20980;-43
2021/12/28 02:06:47;;;;;;;25.90;13.58;;;;;;;-4.19;76.36;98641.12;1746388;82;21039;-41
2021/12/28 02:09:15;;;;;;;29.52;12.98;;;;;;;-4.20;76.59;98638.98;1747479;82;20964;-42
2021/12/28 02:11:40;;;;;;;26.65;11.73;;;;;;;-4.22;76.66;98631.73;1747444;82;21418;-41
2021/12/28 02:14:08;;;;;;;29.07;13.75;;;;;;;-4.15;76.70;98626.10;1747345;82;20968;-41
2021/12/28 02:16:38;;;;;;;35.33;13.93;;;;;;;-4.11;76.60;98626.09;1747339;82;20995;-42
2021/12/28 02:19:06;;;;;;;26.37;14.10;;;;;;;-4.10;76.59;98635.48;1747330;82;20988;-42
2021/12/28 02:21:32;;;;;;;25.57;11.90;;;;;;;-4.03;76.56;98637.58;1747391;82;20975;-42
2021/12/28 02:24:00;;;;;;;25.80;11.85;;;;;;;-4.07;76.30;98632.05;1747284;82;21003;-42
2021/12/28 02:26:27;;;;;;;24.10;12.13;;;;;;;-4.18;76.94;98626.98;1747345;82;20956;-42
2021/12/28 02:28:53;;;;;;;22.05;12.00;;;;;;;-4.15;76.79;98627.39;1750177;82;21067;-42
2021/12/28 02:31:19;;;;;;;22.95;12.58;;;;;;;-4.20;76.73;98626.56;1753147;82;21438;-44
2021/12/28 02:33:48;;;;;;;27.05;11.63;;;;;;;-4.17;76.95;98623.98;1752860;82;20983;-42
2021/12/28 02:36:14;;;;;;;25.37;11.83;;;;;;;-4.05;76.65;98626.47;1752956;82;20978;-42
2021/12/28 02:38:41;;;;;;;21.37;10.60;;;;;;;-4.14;76.55;98625.25;1752851;82;20991;-42
2021/12/28 02:43:31;;;;;;;24.18;11.55;;;;;;;-4.09;76.92;98626.08;1800421;79;23075;-41
2021/12/28 02:46:03;;;;;;;22.73;11.73;;;;;;;-4.17;76.88;98625.27;1761993;80;21022;-42
2021/12/28 02:48:30;;;;;;;21.42;11.28;;;;;;;-4.22;76.98;98625.72;1761809;80;21003;-40
2021/12/28 02:51:01;;;;;;;20.17;11.40;;;;;;;-4.19;77.40;98628.28;1761902;80;21503;-41
2021/12/28 02:53:28;;;;;;;29.42;12.55;;;;;;;-4.27;77.20;98621.92;1761856;81;21008;-40
2021/12/28 02:55:55;;;;;;;21.07;10.72;;;;;;;-4.23;77.18;98615.05;1761905;81;21460;-40
2021/12/28 02:58:29;;;;;;;21.17;11.40;;;;;;;-4.27;77.57;98616.78;1761942;81;21003;-41
2021/12/28 03:01:08;;;;;;;22.75;11.50;;;;;;;-4.22;77.58;98615.05;1755590;81;21543;-40
2021/12/28 03:03:36;;;;;;;21.50;11.53;;;;;;;-4.14;77.35;98615.83;1761969;81;21046;-40
2021/12/28 03:06:07;;;;;;;27.95;12.50;;;;;;;-4.15;77.52;98620.97;1761812;81;21506;-40
2021/12/28 03:08:36;;;;;;;23.02;11.63;;;;;;;-4.12;77.52;98626.09;1761783;81;21019;-40
2021/12/28 03:11:03;;;;;;;18.82;10.80;;;;;;;-4.02;77.16;98615.31;1761724;81;20948;-40
2021/12/28 03:13:34;;;;;;;22.62;11.33;;;;;;;-4.13;77.27;98611.13;1762174;81;20967;-43
2021/12/28 03:16:00;;;;;;;25.97;11.80;;;;;;;-4.12;77.33;98601.70;1761795;81;20987;-40
2021/12/28 03:18:26;;;;;;;28.75;13.80;;;;;;;-4.03;77.15;98608.05;1761822;81;20992;-42
2021/12/28 03:20:52;;;;;;;23.57;11.57;;;;;;;-4.00;77.11;98609.32;1761801;80;20999;-40
2021/12/28 03:23:21;;;;;;;25.00;12.18;;;;;;;-4.06;77.33;98606.78;1761802;81;20987;-42
2021/12/28 03:25:48;;;;;;;21.35;11.33;;;;;;;-4.05;77.49;98605.92;1761773;80;20991;-40
2021/12/28 03:28:22;;;;;;;19.85;11.35;;;;;;;-3.97;77.42;98607.14;1761850;81;21511;-40
2021/12/28 03:30:49;;;;;;;25.55;12.20;;;;;;;-3.98;77.38;98599.01;1761771;80;21015;-40
2021/12/28 03:33:15;;;;;;;19.82;10.65;;;;;;;-3.93;77.27;98594.28;1761926;81;21031;-40
2021/12/28 03:35:41;;;;;;;20.52;10.98;;;;;;;-3.90;77.44;98600.66;1761858;80;21034;-40
2021/12/28 03:38:07;;;;;;;18.00;10.85;;;;;;;-3.83;77.39;98598.90;1761747;80;21465;-40
2021/12/28 03:40:33;;;;;;;25.68;11.97;;;;;;;-3.86;77.43;98585.66;1761733;81;20971;-40
2021/12/28 03:43:00;;;;;;;21.25;11.40;;;;;;;-3.75;77.29;98586.82;1752691;81;21024;-40
2021/12/28 03:45:27;;;;;;;20.62;10.98;;;;;;;-3.74;77.07;98574.84;1748660;82;21012;-40
2021/12/28 03:47:53;;;;;;;;;;;;;;;-3.78;77.38;98574.44;1751266;81;21754;-40
2021/12/28 03:50:19;;;;;;;19.90;10.25;;;;;;;-3.91;77.72;98574.56;1748659;81;20104;-40
2021/12/28 03:52:47;;;;;;;25.68;12.05;;;;;;;-3.86;77.61;98563.83;1748829;82;21082;-40
2021/12/28 03:55:12;;;;;;;27.37;12.63;;;;;;;-3.86;77.58;98565.11;1748309;82;20992;-41
2021/12/28 03:57:39;;;;;;;25.75;12.28;;;;;;;-3.86;77.77;98562.54;1748148;81;21034;-40
2021/12/28 04:00:09;;;;;;;24.90;11.68;;;;;;;-3.86;77.77;98567.67;1748114;81;21039;-40
2021/12/28 04:02:35;;;;;;;27.20;12.85;;;;;;;-3.82;77.90;98571.48;1747970;81;21035;-40
2021/12/28 04:05:00;;;;;;;27.48;12.93;;;;;;;-3.74;78.15;98571.84;1748178;81;21469;-43
2021/12/28 04:07:26;;;;;;;26.00;12.58;;;;;;;-3.74;78.15;98571.84;1748140;81;21023;-40
2021/12/28 04:12:19;;;;;;;20.92;11.60;;;;;;;-3.81;78.31;98589.90;1748107;81;21016;-41
2021/12/28 04:14:45;;;;;;;23.95;12.35;;;;;;;-3.81;78.25;98577.05;1748282;81;20985;-41
2021/12/28 04:17:11;;;;;;;26.17;13.75;;;;;;;-3.89;78.40;98583.55;1748192;81;20993;-41
2021/12/28 04:19:37;;;;;;;28.30;12.98;;;;;;;-3.85;78.52;98582.65;1748189;81;21485;-41
2021/12/28 04:22:03;;;;;;;27.62;13.62;;;;;;;-3.89;78.81;98577.97;1748213;81;21560;-41
2021/12/28 04:24:30;;;;;;;31.37;14.70;;;;;;;-3.86;78.80;98580.52;1748355;81;20961;-41
2021/12/28 04:26:56;;;;;;;28.70;14.23;;;;;;;-3.84;78.74;98592.04;1748100;81;21488;-41
2021/12/28 04:29:22;;;;;;;23.12;12.70;;;;;;;-3.87;79.05;98584.38;1748183;82;20972;-41
2021/12/28 04:31:48;;;;;;;29.25;15.10;;;;;;;-3.90;79.35;98587.81;1748101;81;20988;-41
2021/12/28 04:34:13;;;;;;;28.65;15.60;;;;;;;-3.80;78.93;98586.03;1748038;81;20995;-41
2021/12/28 04:36:39;;;;;;;28.65;13.78;;;;;;;-3.81;78.96;98586.89;1748091;82;21039;-41
2021/12/28 04:39:06;;;;;;;29.05;13.95;;;;;;;-3.84;79.13;98570.65;1748085;82;20991;-41
2021/12/28 04:41:34;;;;;;;28.25;13.70;;;;;;;-3.76;78.98;98565.86;1748365;82;21441;-41
2021/12/28 04:44:01;;;;;;;24.27;13.98;;;;;;;-3.72;78.68;98562.84;1748035;80;21070;-41
2021/12/28 04:46:28;;;;;;;30.82;14.20;;;;;;;-3.72;78.76;98563.67;1748239;81;21528;-42
2021/12/28 04:48:54;;;;;;;30.17;14.98;;;;;;;-3.77;78.85;98562.86;1748197;81;20999;-41
2021/12/28 04:51:20;;;;;;;25.43;13.70;;;;;;;-3.70;78.79;98575.23;1748077;81;20965;-41
2021/12/28 04:53:48;;;;;;;32.67;14.53;;;;;;;-3.67;78.68;98571.36;1748042;81;20999;-41
2021/12/28 04:56:13;;;;;;;32.45;14.30;;;;;;;-3.68;78.69;98567.06;1748035;81;20972;-41
2021/12/28 04:58:39;;;;;;;28.85;14.20;;;;;;;-3.70;78.88;98567.08;1748211;81;20957;-41
2021/12/28 05:01:05;;;;;;;34.55;14.18;;;;;;;-3.61;78.67;98571.28;1737540;82;21038;-41
2021/12/28 05:03:31;;;;;;;30.20;14.85;;;;;;;-3.68;78.64;98575.63;1748028;82;21003;-41
2021/12/28 05:05:57;;;;;;;32.58;15.32;;;;;;;-3.72;78.86;98569.26;1748001;82;21039;-41
2021/12/28 05:08:23;;;;;;;27.75;15.15;;;;;;;-3.67;78.58;98579.91;1748053;81;20972;-42
2021/12/28 05:10:51;;;;;;;29.30;14.38;;;;;;;-3.68;78.52;98582.48;1748072;81;21027;-41
2021/12/28 05:13:17;;;;;;;27.77;13.95;;;;;;;-3.74;78.52;98571.00;1748045;81;20995;-41
2021/12/28 05:15:45;;;;;;;31.52;15.75;;;;;;;-3.75;78.60;98572.69;1748051;81;20972;-42
2021/12/28 05:18:12;;;;;;;29.35;14.43;;;;;;;-3.74;78.71;98575.69;1748146;81;20993;-42
2021/12/28 05:20:38;;;;;;;26.50;14.13;;;;;;;-3.79;78.64;98574.03;1748276;81;21034;-42
2021/12/28 05:23:04;;;;;;;27.80;14.38;;;;;;;-3.79;78.59;98567.61;1748130;81;20987;-42
2021/12/28 05:25:32;;;;;;;32.88;15.72;;;;;;;-3.82;78.77;98569.78;1748069;81;21034;-42
2021/12/28 05:27:58;;;;;;;32.40;15.08;;;;;;;-3.91;78.79;98568.14;1748213;81;20972;-42
2021/12/28 05:30:24;;;;;;;30.82;14.38;;;;;;;-3.89;78.95;98561.27;1748244;81;20995;-41
2021/12/28 05:32:50;;;;;;;24.90;14.63;;;;;;;-4.01;78.99;98556.23;1748049;81;20988;-41
2021/12/28 05:35:16;;;;;;;32.70;16.55;;;;;;;-4.04;79.13;98565.23;1748063;81;20995;-41
2021/12/28 05:37:43;;;;;;;33.90;15.72;;;;;;;-3.96;79.20;98562.19;1748210;81;21030;-41
2021/12/28 05:40:11;;;;;;;28.55;15.20;;;;;;;-4.01;79.53;98565.22;1748086;82;20993;-41
2021/12/28 05:42:37;;;;;;;33.95;15.35;;;;;;;-4.03;79.49;98559.25;1751757;81;21465;-41
2021/12/28 05:45:05;;;;;;;38.48;17.57;;;;;;;-3.98;79.20;98561.77;1761353;81;20999;-41
2021/12/28 05:47:31;;;;;;;35.92;16.70;;;;;;;-3.91;79.18;98548.00;1761379;81;20972;-41
2021/12/28 05:49:57;;;;;;;36.53;16.97;;;;;;;-3.89;79.04;98543.29;1761476;81;20991;-41
2021/12/28 05:52:24;;;;;;;34.67;16.62;;;;;;;-3.85;79.11;98549.25;1761355;81;21472;-41
2021/12/28 05:54:50;;;;;;;35.73;16.02;;;;;;;-3.88;78.84;98560.39;1761358;81;21003;-41
2021/12/28 05:57:16;;;;;;;32.78;16.65;;;;;;;-3.98;79.19;98558.79;1761379;81;20990;-41
2021/12/28 05:59:41;;;;;;;36.75;16.17;;;;;;;-3.97;79.47;98563.04;1761303;81;21051;-41
2021/12/28 06:02:07;;;;;;;32.85;16.35;;;;;;;-3.99;79.51;98552.37;1761336;81;20996;-41
2021/12/28 06:04:34;;;;;;;34.30;16.20;;;;;;;-4.06;79.59;98554.13;1761430;81;20999;-41
2021/12/28 06:07:00;;;;;;;36.50;17.02;;;;;;;-3.93;79.38;98544.19;1761344;81;20990;-41
2021/12/28 06:09:25;;;;;;;32.13;15.98;;;;;;;-3.95;79.17;98546.34;1761459;80;21505;-41
2021/12/28 06:11:51;;;;;;;34.63;17.35;;;;;;;-3.93;79.32;98560.02;1761350;81;21532;-41
2021/12/28 06:14:17;;;;;;;25.43;14.10;;;;;;;-4.03;79.55;98558.41;1761314;81;20971;-41
2021/12/28 06:16:43;;;;;;;30.82;15.15;;;;;;;-3.94;79.54;98561.73;1761369;81;21003;-41
2021/12/28 06:19:09;;;;;;;27.70;14.83;;;;;;;-3.95;79.54;98548.47;1761328;81;20991;-41
2021/12/28 06:21:36;;;;;;;30.05;14.83;;;;;;;-3.96;79.33;98558.34;1761340;81;20982;-41
2021/12/28 06:24:05;;;;;;;29.02;15.48;;;;;;;-4.03;79.62;98560.53;1761475;81;21038;-41
2021/12/28 06:26:33;;;;;;;33.00;16.20;;;;;;;-4.01;79.65;98556.23;1761426;81;21003;-41
2021/12/28 06:29:00;;;;;;;30.17;15.43;;;;;;;-3.95;79.52;98564.31;1761349;81;21003;-41
2021/12/28 06:31:28;;;;;;;34.83;18.45;;;;;;;-3.95;79.52;98554.88;1761460;81;21003;-41
2021/12/28 06:34:00;;;;;;;34.50;17.92;;;;;;;-3.89;79.46;98554.02;1761375;81;21499;-41
2021/12/28 06:36:27;;;;;;;28.87;16.45;;;;;;;-3.83;79.14;98551.38;1761303;81;20979;-41
2021/12/28 06:38:53;;;;;;;31.17;16.37;;;;;;;-3.92;79.17;98552.30;1761525;81;20968;-41
2021/12/28 06:41:19;;;;;;;32.80;17.05;;;;;;;-3.80;79.06;98556.91;1761253;81;20995;-41
2021/12/28 06:43:47;;;;;;;35.95;18.00;;;;;;;-3.81;79.05;98550.92;1752890;81;21063;-41
2021/12/28 06:46:13;;;;;;;30.17;16.52;;;;;;;-3.94;79.06;98550.63;1748024;81;21035;-41
2021/12/28 06:48:39;;;;;;;29.85;15.60;;;;;;;-3.81;78.99;98556.06;1748082;81;20991;-41
2021/12/28 06:51:06;;;;;;;27.25;15.75;;;;;;;-3.98;78.92;98548.52;1747995;81;21002;-41
2021/12/28 06:53:33;;;;;;;31.85;17.70;;;;;;;-3.98;78.92;98548.52;1748134;81;21500;-41
2021/12/28 06:55:58;;;;;;;46.00;18.30;;;;;;;-3.88;79.19;98546.70;1748224;81;21591;-41
2021/12/28 06:58:24;;;;;;;34.43;16.00;;;;;;;-3.84;79.13;98562.94;1747980;81;21281;-41
2021/12/28 07:00:50;;;;;;;29.05;16.32;;;;;;;-3.84;79.18;98565.51;1747998;81;20995;-41
2021/12/28 07:03:16;;;;;;;30.85;16.87;;;;;;;-3.88;79.11;98561.67;1747987;81;21022;-42
2021/12/28 07:05:42;;;;;;;38.38;17.48;;;;;;;-3.82;79.08;98574.05;1747977;82;21046;-41
2021/12/28 07:08:08;;;;;;;32.35;16.75;;;;;;;-3.84;79.34;98577.91;1748261;81;21055;-42
2021/12/28 07:10:34;;;;;;;30.72;16.52;;;;;;;-3.82;79.43;98577.91;1747953;81;20992;-41
2021/12/28 07:13:00;;;;;;;33.42;16.67;;;;;;;-3.78;78.99;98582.14;1747936;82;21007;-42
2021/12/28 07:15:26;;;;;;;31.00;17.25;;;;;;;-3.83;78.84;98570.64;1747995;81;20999;-42
2021/12/28 07:17:52;;;;;;;35.73;17.15;;;;;;;-3.83;78.84;98570.64;1747918;81;21035;-41
2021/12/28 07:20:18;;;;;;;30.45;14.93;;;;;;;-3.78;78.95;98577.88;1748119;81;20987;-41
2021/12/28 07:22:44;;;;;;;31.50;16.02;;;;;;;-3.81;79.00;98579.62;1747942;81;21104;-41
2021/12/28 07:25:11;;;;;;;33.85;17.57;;;;;;;-3.76;78.92;98573.57;1747915;81;21003;-42
2021/12/28 07:27:38;;;;;;;35.83;17.83;;;;;;;-3.72;78.74;98580.82;1748204;82;21043;-41
2021/12/28 07:30:10;;;;;;;37.83;19.70;;;;;;;-3.62;78.69;98576.02;1748115;81;21501;-41
2021/12/28 07:32:36;;;;;;;37.10;18.17;;;;;;;-3.60;78.56;98575.57;1748139;82;21460;-41
2021/12/28 07:35:02;;;;;;;38.02;17.48;;;;;;;-3.59;78.58;98568.70;1748190;82;20968;-41
2021/12/28 07:37:28;;;;;;;32.97;17.37;;;;;;;-3.54;78.57;98551.52;1748422;81;20972;-41
2021/12/28 07:39:54;;;;;;;34.88;17.65;;;;;;;-3.53;78.36;98549.35;1748348;81;20988;-41
2021/12/28 07:42:20;;;;;;;33.73;18.07;;;;;;;-3.42;78.08;98545.39;1748079;81;20987;-41
2021/12/28 07:44:47;;;;;;;30.57;15.73;;;;;;;-3.41;77.95;98543.25;1748259;80;21028;-41
2021/12/28 07:47:13;;;;;;;37.13;18.62;;;;;;;-3.37;77.93;98552.62;1748138;82;21052;-41
2021/12/28 07:49:38;;;;;;;38.35;19.15;;;;;;;-3.40;77.75;98544.52;1748164;81;21535;-42
2021/12/28 07:52:05;;;;;;;37.10;18.32;;;;;;;-3.41;77.84;98545.81;1748101;81;20999;-42
2021/12/28 07:54:31;;;;;;;36.17;16.12;;;;;;;-3.34;77.72;98541.02;1748267;81;21136;-41
2021/12/28 07:56:57;;;;;;;40.35;18.45;;;;;;;-3.34;77.71;98538.45;1748214;81;21042;-42
2021/12/28 07:59:23;;;;;;;50.23;21.45;;;;;;;-3.32;77.53;98527.72;1748096;81;21038;-42
2021/12/28 08:01:49;;;;;;;41.18;18.55;;;;;;;-3.38;77.63;98516.23;1748147;81;20996;-41
2021/12/28 08:04:15;;;;;;;32.17;17.45;;;;;;;-3.36;77.69;98528.63;1748208;81;20991;-41
2021/12/28 08:06:41;;;;;;;35.80;17.27;;;;;;;-3.39;77.69;98520.94;1748108;81;21493;-42
2021/12/28 08:09:07;;;;;;;35.52;18.87;;;;;;;-3.36;77.57;98521.76;1748231;81;21039;-42
2021/12/28 08:11:34;;;;;;;46.05;23.65;;;;;;;-3.43;77.49;98523.98;1748182;81;21571;-41
2021/12/28 08:14:01;;;;;;;;;;;;;;;-3.42;77.52;98538.96;1750905;81;20960;-41
2021/12/28 08:16:26;;;;;;;50.15;22.15;;;;;;;-3.48;77.67;98536.02;1748095;81;20104;-42
2021/12/28 08:18:52;;;;;;;35.00;18.12;;;;;;;-3.36;77.61;98543.61;1748215;81;21004;-42
2021/12/28 08:21:18;;;;;;;33.67;17.95;;;;;;;-3.28;77.63;98535.36;1748032;82;20999;-41
2021/12/28 08:23:44;;;;;;;38.92;18.87;;;;;;;-3.40;77.29;98527.81;1748266;81;20972;-41
2021/12/28 08:26:10;;;;;;;31.05;17.20;;;;;;;-3.29;77.38;98530.26;1748122;81;21039;-42
2021/12/28 08:28:36;;;;;;;39.30;19.17;;;;;;;-3.20;77.30;98526.70;1748108;81;20995;-41
2021/12/28 08:31:03;;;;;;;34.18;17.02;;;;;;;-3.24;77.09;98519.46;1748131;81;21509;-41
2021/12/28 08:33:29;;;;;;;40.33;18.00;;;;;;;-3.14;76.97;98521.06;1748510;81;20987;-42
2021/12/28 08:35:56;;;;;;;38.75;19.05;;;;;;;-3.14;76.83;98523.63;1748047;81;20999;-42
2021/12/28 08:38:22;;;;;;;35.73;18.60;;;;;;;-3.03;76.94;98525.23;1748243;81;20999;-42
2021/12/28 08:40:48;;;;;;;36.05;18.45;;;;;;;-3.01;76.63;98528.63;1748157;81;21516;-42
2021/12/28 08:43:14;;;;;;;41.63;18.90;;;;;;;-2.99;76.53;98534.16;1748015;80;21505;-42
2021/12/28 08:45:41;;;;;;;36.58;17.87;;;;;;;-2.84;76.65;98534.38;1744693;81;21011;-42
2021/12/28 08:48:11;;;;;;;32.33;16.02;;;;;;;-2.79;76.53;98530.03;1731919;81;21019;-42
2021/12/28 08:50:38;;;;;;;28.70;15.30;;;;;;;-2.73;76.09;98523.53;1718352;82;21504;-43
2021/12/28 08:53:04;;;;;;;36.35;17.75;;;;;;;-2.73;75.53;98520.95;1718489;82;20979;-43
2021/12/28 08:55:31;;;;;;;30.32;17.27;;;;;;;-2.66;75.64;98536.30;1718378;82;21003;-43
2021/12/28 08:57:57;;;;;;;32.55;16.65;;;;;;;-2.74;75.26;98530.83;1718302;83;21015;-41
2021/12/28 09:00:27;;;;;;;32.58;16.95;;;;;;;-2.59;75.48;98524.59;1724410;82;21040;-42
2021/12/28 09:02:55;;;;;;;31.33;16.05;;;;;;;-2.77;75.24;98519.72;1747391;80;20984;-42
2021/12/28 09:05:23;;;;;;;30.43;16.55;;;;;;;-2.68;75.37;98517.46;1739194;82;20964;-44
2021/12/28 09:07:48;;;;;;;34.43;18.12;;;;;;;-2.72;75.25;98508.94;1740781;80;21004;-44
2021/12/28 09:10:15;;;;;;;29.92;15.85;;;;;;;-2.72;75.38;98506.36;1754735;80;20987;-43
2021/12/28 09:12:41;;;;;;;27.40;14.65;;;;;;;-2.67;75.22;98508.84;1747810;82;20972;-43
2021/12/28 09:15:09;;;;;;;28.38;16.00;;;;;;;-2.68;75.41;98504.15;1747709;81;20964;-43
2021/12/28 09:17:34;;;;;;;25.72;14.78;;;;;;;-2.76;75.72;98497.83;1743459;81;21031;-43
2021/12/28 09:20:04;;;;;;;31.42;16.07;;;;;;;-2.81;75.35;98494.47;1746229;82;21441;-43
2021/12/28 09:22:30;;;;;;;29.25;14.07;;;;;;;-2.76;75.45;98505.55;1746203;82;20984;-43
2021/12/28 09:24:56;;;;;;;26.70;15.13;;;;;;;-2.77;75.53;98496.56;1746425;82;21488;-43
2021/12/28 09:27:21;;;;;;;31.75;15.83;;;;;;;-2.73;75.53;98491.36;1752970;80;21919;-43
2021/12/28 09:29:47;;;;;;;26.30;14.80;;;;;;;-2.81;75.61;98493.63;1773969;80;21993;-43
2021/12/28 09:32:13;;;;;;;31.62;16.73;;;;;;;-2.80;75.46;98490.16;1764146;80;20944;-43
2021/12/28 09:34:40;;;;;;;30.97;16.73;;;;;;;-2.64;75.50;98485.20;1770007;80;21456;-43
2021/12/28 09:37:06;;;;;;;;;;;;;;;-2.63;75.33;98492.52;1772379;80;21019;-44
2021/12/28 09:39:32;;;;;;;30.90;17.73;;;;;;;-2.58;75.14;98498.45;1766014;80;20148;-43
2021/12/28 09:42:01;;;;;;;31.57;16.80;;;;;;;-2.48;75.54;98476.81;1768100;80;21027;-43
2021/12/28 09:44:30;;;;;;;36.88;17.55;;;;;;;-2.48;75.54;98476.81;1767839;80;21022;-44
2021/12/28 09:46:57;;;;;;;31.25;16.67;;;;;;;-2.42;74.91;98484.46;1775042;80;20958;-42
2021/12/28 09:49:25;;;;;;;40.52;17.77;;;;;;;-2.36;75.03;98480.48;1775559;80;21593;-43
2021/12/28 09:51:51;;;;;;;;;;;;;;;-2.51;74.60;98485.86;1778216;80;20958;-43
2021/12/28 09:54:17;;;;;;;25.60;14.98;;;;;;;-2.42;74.64;98489.61;1768877;80;20164;-43
2021/12/28 09:56:43;;;;;;;22.00;13.78;;;;;;;-2.40;74.62;98477.97;1767822;80;20971;-43
2021/12/28 09:59:09;;;;;;;28.73;16.27;;;;;;;-2.46;74.65;98467.34;1763691;80;21014;-43
2021/12/28 10:01:35;;;;;;;31.42;18.35;;;;;;;-2.46;74.41;98462.64;1767258;80;21080;-42
2021/12/28 10:04:01;;;;;;;28.60;15.45;;;;;;;-2.44;74.78;98464.74;1772646;80;21005;-42
2021/12/28 10:06:29;;;;;;;27.27;16.42;;;;;;;-2.29;74.65;98459.77;1772541;80;20960;-43
2021/12/28 10:09:21;;;;;;;34.50;17.50;;;;;;;-2.40;74.38;98451.81;1761937;79;20939;-42
2021/12/28 10:11:56;;;;;;;27.20;16.75;;;;;;;-2.38;74.56;98462.93;1768097;80;21429;-43
2021/12/28 10:14:26;;;;;;;30.82;17.35;;;;;;;-2.42;74.30;98451.41;1769908;80;20972;-43
2021/12/28 10:16:59;;;;;;;38.30;18.20;;;;;;;-2.30;74.43;98454.23;1767536;80;20982;-42
2021/12/28 10:19:44;;;;;;;39.65;18.87;;;;;;;-2.28;74.50;98451.19;1767199;80;20962;-43
2021/12/28 10:22:47;;;;;;;34.90;18.82;;;;;;;-2.26;74.45;98448.14;1764253;80;21000;-43
2021/12/28 10:25:17;;;;;;;32.28;17.23;;;;;;;-2.22;74.29;98453.64;1772423;80;20946;-43
2021/12/28 10:27:51;;;;;;;32.03;16.97;;;;;;;-2.25;74.35;98461.45;1767113;80;21523;-42
2021/12/28 10:30:28;;;;;;;29.70;15.93;;;;;;;-2.21;74.43;98463.09;1762769;80;21477;-44
2021/12/28 10:32:59;;;;;;;35.90;17.85;;;;;;;-2.25;74.30;98449.86;1756802;80;21000;-42
2021/12/28 10:35:30;;;;;;;35.58;18.62;;;;;;;-2.25;74.25;98451.14;1766653;80;21549;-43
2021/12/28 10:38:01;;;;;;;29.70;16.75;;;;;;;-2.23;74.34;98450.67;1769681;79;21539;-42
2021/12/28 10:40:32;;;;;;;33.85;17.90;;;;;;;-2.36;74.45;98444.89;1772777;79;21028;-44
2021/12/28 10:43:19;;;;;;;33.78;17.65;;;;;;;-2.22;74.31;98442.05;1763091;80;21042;-41
2021/12/28 10:46:05;;;;;;;31.73;16.42;;;;;;;-2.35;74.25;98438.84;1771835;80;21034;-42
2021/12/28 10:48:39;;;;;;;29.72;15.30;;;;;;;-2.17;74.33;98446.25;1775402;80;20989;-44
2021/12/28 11:04:36;;;;;;;32.08;16.50;;;;;;;-1.53;73.16;98432.19;1835875;77;22276;-71
2021/12/28 11:07:06;;;;;;;31.35;17.40;;;;;;;-1.60;72.54;98431.03;1796623;78;21039;-69
2021/12/28 11:09:31;;;;;;;30.12;17.52;;;;;;;-1.67;72.39;98424.71;1813430;78;20955;-71
2021/12/28 11:11:58;;;;;;;27.05;15.75;;;;;;;-1.81;72.47;98424.55;1808868;78;21500;-70
2021/12/28 11:14:30;;;;;;;26.60;16.23;;;;;;;-1.85;72.76;98408.75;1805749;78;21486;-67
2021/12/28 11:17:00;;;;;;;27.15;15.80;;;;;;;-1.92;72.76;98409.74;1799614;78;20967;-69
2021/12/28 11:19:35;;;;;;;29.75;16.62;;;;;;;-1.85;73.07;98404.05;1803354;78;21127;-70
2021/12/28 11:22:09;;;;;;;24.25;16.60;;;;;;;-1.94;72.96;98404.61;1800822;78;20955;-69
2021/12/28 11:24:40;;;;;;;30.30;17.65;;;;;;;-1.94;73.19;98397.33;1803560;78;20977;-71
2021/12/28 11:27:10;;;;;;;28.95;16.62;;;;;;;-1.95;72.88;98407.22;1804319;78;20966;-69
2021/12/28 11:29:38;;;;;;;34.15;18.87;;;;;;;-2.19;73.01;98402.93;1811108;78;20943;-71
2021/12/28 11:32:16;;;;;;;30.82;17.42;;;;;;;-2.26;73.35;98401.34;1805206;78;20971;-70
2021/12/28 11:34:43;;;;;;;29.15;17.42;;;;;;;-2.25;73.75;98403.50;1806627;78;21509;-70
2021/12/28 11:37:15;;;;;;;33.97;17.90;;;;;;;-2.16;73.50;98390.45;1809759;78;20994;-68
2021/12/28 11:39:47;;;;;;;29.72;18.10;;;;;;;-2.07;73.61;98382.55;1806498;78;21431;-72
2021/12/28 11:42:16;;;;;;;32.25;19.27;;;;;;;-2.03;73.42;98389.33;1802789;78;21640;-71